Time;durP1;ratioP1;P1;durP2;ratioP2;P2;SDS_P1;SDS_P2;PMS_P1;PMS_P2;Temp;Humidity;BMP_temperature;BMP_pressure;BME280_temperature;BME280_humidity;BME280_pressure;Samples;Min_cycle;Max_cycle;Signal;HPM_P1;HPM_P2
2021/12/11 00:00:23;;;;;;;15.73;11.88;;;0.00;99.90;;;;;;5104222;27;20044;-62
2021/12/11 00:03:12;;;;;;;15.40;11.43;;;-0.20;99.90;;;;;;5130563;27;20051;-61
2021/12/11 00:05:38;;;;;;;15.65;9.95;;;-0.20;99.90;;;;;;5104934;27;20035;-62
2021/12/11 00:08:05;;;;;;;16.77;11.32;;;-0.20;99.90;;;;;;5103479;27;20078;-61
2021/12/11 00:10:48;;;;;;;15.05;11.32;;;-0.20;99.90;;;;;;5104101;28;20509;-61
2021/12/11 00:13:21;;;;;;;17.08;12.45;;;-0.10;99.90;;;;;;5089804;28;20047;-62
2021/12/11 00:15:48;;;;;;;18.40;12.48;;;-0.10;99.90;;;;;;5101221;28;20073;-62
2021/12/11 00:18:23;;;;;;;18.40;12.35;;;-0.10;99.90;;;;;;5134687;27;20166;-61
2021/12/11 00:21:03;;;;;;;18.13;12.57;;;-0.10;99.90;;;;;;5103765;27;20134;-62
2021/12/11 00:23:38;;;;;;;14.02;11.13;;;-0.10;99.90;;;;;;5135127;27;20039;-62
2021/12/11 00:26:06;;;;;;;13.90;11.07;;;-0.20;99.90;;;;;;5098074;28;20036;-61
2021/12/11 00:28:32;;;;;;;19.15;12.45;;;-0.20;99.90;;;;;;5103158;27;20035;-61
2021/12/11 00:30:59;;;;;;;19.42;13.20;;;-0.20;99.90;;;;;;5100170;28;20039;-62
2021/12/11 00:33:30;;;;;;;21.20;13.30;;;-0.20;99.90;;;;;;5103600;27;20092;-61
2021/12/11 00:35:56;;;;;;;18.02;12.63;;;-0.30;99.90;;;;;;5104086;28;20085;-62
2021/12/11 00:38:32;;;;;;;22.00;14.45;;;-0.30;99.90;;;;;;5100946;28;20068;-61
2021/12/11 00:40:59;;;;;;;21.23;12.02;;;-0.30;99.90;;;;;;5107419;27;20062;-61
2021/12/11 00:43:30;;;;;;;19.30;12.68;;;-0.30;99.90;;;;;;5101924;27;20051;-61
2021/12/11 00:45:58;;;;;;;17.10;11.73;;;-0.30;99.90;;;;;;5103343;27;20077;-61
2021/12/11 00:48:26;;;;;;;16.77;11.27;;;-0.30;99.90;;;;;;5103408;27;20038;-61
2021/12/11 00:51:06;;;;;;;19.50;12.02;;;-0.30;99.90;;;;;;5096183;28;20039;-61
2021/12/11 00:53:39;;;;;;;19.08;12.77;;;-0.30;99.90;;;;;;5093397;28;20047;-61
2021/12/11 00:56:37;;;;;;;20.75;14.02;;;-0.30;99.90;;;;;;5095088;27;20411;-61
2021/12/11 00:59:08;;;;;;;22.80;12.20;;;-0.40;99.90;;;;;;5099238;28;20032;-61
2021/12/11 01:01:39;;;;;;;19.52;13.30;;;-0.30;99.90;;;;;;5096105;27;20048;-61
2021/12/11 01:04:16;;;;;;;17.23;13.00;;;-0.30;99.90;;;;;;5127927;27;20513;-61
2021/12/11 01:06:49;;;;;;;20.27;14.07;;;-0.30;99.90;;;;;;5099089;28;20027;-61
2021/12/11 01:09:47;;;;;;;27.23;16.92;;;-0.30;99.90;;;;;;5112880;27;20101;-61
2021/12/11 01:12:42;;;;;;;24.92;16.10;;;-0.30;99.90;;;;;;5096378;27;20924;-61
2021/12/11 01:15:19;;;;;;;16.95;12.73;;;-0.40;99.90;;;;;;5094841;28;20116;-61
2021/12/11 01:18:02;;;;;;;17.83;12.40;;;-0.50;99.90;;;;;;5095553;27;20048;-61
2021/12/11 01:20:45;;;;;;;21.05;14.57;;;-0.50;99.90;;;;;;5131356;27;20089;-61
2021/12/11 01:23:26;;;;;;;27.38;16.95;;;0.20;99.90;;;;;;5096083;27;20819;-61
2021/12/11 01:25:52;;;;;;;27.08;17.40;;;-0.50;99.90;;;;;;5127758;27;20031;-61
2021/12/11 01:28:19;;;;;;;28.10;16.85;;;-0.50;99.90;;;;;;5099421;27;20174;-61
2021/12/11 01:30:45;;;;;;;24.70;15.38;;;-0.40;99.90;;;;;;5128816;27;20489;-61
2021/12/11 01:33:11;;;;;;;23.73;15.65;;;-0.40;99.90;;;;;;5092969;28;20048;-61
2021/12/11 01:35:38;;;;;;;26.55;16.98;;;-0.50;99.90;;;;;;5099977;28;20361;-61
2021/12/11 01:38:09;;;;;;;22.77;14.50;;;-0.50;99.90;;;;;;5096352;28;20508;-61
2021/12/11 01:40:35;;;;;;;25.65;14.90;;;-0.50;99.90;;;;;;5097416;28;20168;-61
2021/12/11 01:43:05;;;;;;;20.75;15.15;;;-0.60;99.90;;;;;;5092887;28;20047;-61
2021/12/11 01:45:32;;;;;;;21.60;15.52;;;-0.60;99.90;;;;;;5095245;28;20031;-61
2021/12/11 01:47:58;;;;;;;26.10;14.85;;;-0.50;99.90;;;;;;5094845;28;20043;-61
2021/12/11 01:50:37;;;;;;;20.38;13.32;;;-0.70;99.90;;;;;;5095290;28;20044;-61
2021/12/11 01:53:17;;;;;;;20.52;13.30;;;-0.60;99.90;;;;;;5129275;27;20043;-61
2021/12/11 01:55:53;;;;;;;20.33;14.75;;;-0.60;99.90;;;;;;5095612;28;20035;-61
2021/12/11 01:58:43;;;;;;;20.88;13.85;;;-0.60;99.90;;;;;;5100641;27;20051;-61
2021/12/11 02:01:17;;;;;;;25.65;13.73;;;-0.40;99.90;;;;;;5128069;27;20047;-61
2021/12/11 02:03:43;;;;;;;26.73;15.38;;;-0.70;99.90;;;;;;5094129;28;20044;-61
2021/12/11 02:06:10;;;;;;;25.23;15.48;;;-0.60;99.90;;;;;;5096626;28;20402;-61
2021/12/11 02:08:38;;;;;;;21.33;14.68;;;-0.70;99.90;;;;;;5097391;27;20819;-61
2021/12/11 02:11:09;;;;;;;17.20;13.25;;;-0.70;99.90;;;;;;5093868;28;20055;-61
2021/12/11 02:13:46;;;;;;;22.80;14.45;;;-0.60;99.90;;;;;;5126881;27;20059;-61
2021/12/11 02:16:29;;;;;;;19.48;13.48;;;-0.60;99.90;;;;;;5096590;28;20040;-61
2021/12/11 02:19:09;;;;;;;18.77;13.63;;;-0.60;99.90;;;;;;5095172;28;20059;-61
2021/12/11 02:21:56;;;;;;;18.30;12.85;;;-0.70;99.90;;;;;;5096687;28;20035;-61
2021/12/11 02:24:25;;;;;;;22.42;15.40;;;-0.70;99.90;;;;;;5093608;28;20532;-61
2021/12/11 02:26:54;;;;;;;20.67;14.27;;;-0.80;99.90;;;;;;5128932;27;20111;-61
2021/12/11 02:29:28;;;;;;;18.17;12.73;;;-0.80;99.90;;;;;;5101028;28;20483;-61
2021/12/11 02:32:00;;;;;;;21.85;12.45;;;-0.80;99.90;;;;;;5094645;28;20126;-61
2021/12/11 02:34:35;;;;;;;23.33;14.40;;;-0.60;99.90;;;;;;5095272;28;20401;-61
2021/12/11 02:37:09;;;;;;;19.60;13.40;;;-0.80;99.90;;;;;;5094673;28;20039;-61
2021/12/11 02:39:50;;;;;;;18.27;13.18;;;-0.80;99.90;;;;;;5095360;28;21896;-61
2021/12/11 02:42:20;;;;;;;18.35;12.95;;;-0.90;99.90;;;;;;5095698;28;20525;-61
2021/12/11 02:44:54;;;;;;;22.10;14.35;;;-0.80;99.90;;;;;;5094476;28;20044;-61
2021/12/11 02:47:30;;;;;;;21.92;14.07;;;-0.80;99.90;;;;;;5081048;28;20474;-61
2021/12/11 02:49:58;;;;;;;19.77;13.45;;;-0.80;99.90;;;;;;5099801;28;20516;-61
2021/12/11 02:52:38;;;;;;;21.80;14.23;;;-0.80;99.90;;;;;;5096896;28;20498;-61
2021/12/11 02:55:31;;;;;;;18.83;12.40;;;-0.80;99.90;;;;;;5093195;28;20111;-61
2021/12/11 02:58:03;;;;;;;16.70;10.70;;;-0.80;99.90;;;;;;5092864;28;20062;-61
2021/12/11 03:00:37;;;;;;;18.88;13.20;;;-0.70;99.90;;;;;;5098212;28;20039;-61
2021/12/11 03:03:07;;;;;;;14.93;11.52;;;-0.70;99.90;;;;;;5126338;27;20044;-61
2021/12/11 03:05:45;;;;;;;17.52;12.32;;;-0.70;99.90;;;;;;5129566;27;20512;-61
2021/12/11 03:08:15;;;;;;;18.55;12.05;;;-0.80;99.90;;;;;;5096417;28;20046;-61
2021/12/11 03:10:44;;;;;;;17.80;12.23;;;-0.80;99.90;;;;;;5097081;28;20046;-61
2021/12/11 03:13:11;;;;;;;16.10;12.60;;;-0.70;99.90;;;;;;5098088;28;20632;-61
2021/12/11 03:15:37;;;;;;;20.05;12.20;;;-0.90;99.90;;;;;;5093990;28;20127;-61
2021/12/11 03:18:05;;;;;;;18.45;11.50;;;-0.90;99.90;;;;;;5097717;28;20157;-61
2021/12/11 03:20:32;;;;;;;23.48;14.55;;;-0.90;99.90;;;;;;5098066;27;20194;-61
2021/12/11 03:22:59;;;;;;;21.00;14.38;;;-0.90;99.90;;;;;;5131390;27;21385;-61
2021/12/11 03:25:28;;;;;;;18.23;13.52;;;-0.70;99.90;;;;;;5097524;27;20406;-61
2021/12/11 03:27:54;;;;;;;16.52;12.45;;;-0.90;99.90;;;;;;5105862;28;20078;-61
2021/12/11 03:30:27;;;;;;;17.33;12.63;;;-0.90;99.90;;;;;;5100599;27;20080;-61
2021/12/11 03:32:57;;;;;;;16.17;11.32;;;-0.90;99.90;;;;;;5102269;27;20050;-61
2021/12/11 03:35:24;;;;;;;17.15;12.50;;;-0.90;99.90;;;;;;5104203;28;20046;-61
2021/12/11 03:37:50;;;;;;;17.60;12.07;;;-0.90;99.90;;;;;;5104753;27;20043;-61
2021/12/11 03:40:16;;;;;;;22.15;12.80;;;-1.00;99.90;;;;;;5136438;27;20505;-61
2021/12/11 03:42:45;;;;;;;23.38;14.38;;;-1.00;99.90;;;;;;5105338;28;20109;-61
2021/12/11 03:45:15;;;;;;;17.20;12.07;;;-0.70;99.90;;;;;;5102138;28;20047;-61
2021/12/11 03:47:52;;;;;;;15.40;11.20;;;-1.00;99.90;;;;;;5102273;27;20478;-61
2021/12/11 03:50:20;;;;;;;14.85;10.70;;;-1.00;99.90;;;;;;5136833;27;20043;-61
2021/12/11 03:52:47;;;;;;;12.68;10.57;;;-1.00;99.90;;;;;;5099923;27;20040;-61
2021/12/11 03:55:18;;;;;;;18.83;11.55;;;-1.00;99.90;;;;;;5102081;27;20055;-61
2021/12/11 03:57:44;;;;;;;15.40;10.48;;;-0.90;99.90;;;;;;5103554;27;20063;-61
2021/12/11 04:00:17;;;;;;;16.40;12.20;;;-1.00;99.90;;;;;;5106611;27;20035;-61
2021/12/11 04:02:44;;;;;;;18.35;11.88;;;-1.00;99.90;;;;;;5103778;27;20036;-61
2021/12/11 04:05:11;;;;;;;16.25;12.15;;;-1.10;99.90;;;;;;5104670;27;20047;-61
2021/12/11 04:07:42;;;;;;;17.05;11.57;;;-1.00;99.90;;;;;;5104371;27;20549;-61
2021/12/11 04:10:11;;;;;;;21.45;13.82;;;-1.00;99.90;;;;;;5133396;27;20075;-61
2021/12/11 04:12:37;;;;;;;23.88;15.07;;;-1.00;99.90;;;;;;5103156;27;20047;-61
2021/12/11 04:15:05;;;;;;;25.08;15.63;;;-1.00;99.90;;;;;;5098525;27;20050;-61
2021/12/11 04:17:31;;;;;;;23.88;16.33;;;-1.00;99.90;;;;;;5104645;27;20050;-61
2021/12/11 04:20:00;;;;;;;30.27;19.08;;;-0.90;99.90;;;;;;5102859;27;20476;-61
2021/12/11 04:22:26;;;;;;;29.38;18.25;;;-0.30;99.90;;;;;;5087145;28;20044;-61
2021/12/11 04:24:53;;;;;;;35.00;21.27;;;-0.80;99.90;;;;;;5101225;27;20086;-61
2021/12/11 04:27:20;;;;;;;29.02;17.95;;;-0.90;99.90;;;;;;5102154;27;20642;-61
2021/12/11 04:29:49;;;;;;;29.30;18.75;;;-0.90;99.90;;;;;;5101872;27;20071;-61
2021/12/11 04:32:16;;;;;;;33.60;17.15;;;-0.70;99.90;;;;;;5100562;27;20679;-61
2021/12/11 04:34:42;;;;;;;27.55;17.15;;;-1.00;99.90;;;;;;5100814;27;20107;-61
2021/12/11 04:37:20;;;;;;;30.00;18.38;;;-0.80;99.90;;;;;;5106195;27;20039;-61
2021/12/11 04:39:53;;;;;;;26.77;17.88;;;-0.90;99.90;;;;;;5136491;27;20163;-61
2021/12/11 04:42:43;;;;;;;30.65;19.45;;;-1.00;99.90;;;;;;5105189;28;20051;-61
2021/12/11 04:45:23;;;;;;;33.42;18.80;;;-0.90;99.90;;;;;;5098155;28;20394;-61
2021/12/11 04:47:55;;;;;;;34.92;21.45;;;-1.00;99.90;;;;;;5104337;27;20085;-61
2021/12/11 04:50:43;;;;;;;32.83;20.45;;;-1.00;99.90;;;;;;5102473;28;20039;-61
2021/12/11 04:53:26;;;;;;;30.13;17.60;;;-1.00;99.90;;;;;;5101389;27;20079;-61
2021/12/11 05:06:35;;;;;;;29.85;20.17;;;-0.90;99.90;;;;;;5103301;27;21526;-61
2021/12/11 05:11:43;;;;;;;29.85;21.02;;;-0.90;99.90;;;;;;5133549;27;20043;-61
2021/12/11 05:14:12;;;;;;;29.10;19.15;;;-0.90;99.90;;;;;;5101831;27;20043;-61
2021/12/11 05:16:38;;;;;;;32.70;21.45;;;-0.90;99.90;;;;;;5135832;27;20092;-62
2021/12/11 05:19:05;;;;;;;36.42;23.38;;;-0.80;99.90;;;;;;5110447;27;20039;-61
2021/12/11 05:21:31;;;;;;;37.13;20.55;;;-0.80;99.90;;;;;;5103611;27;20084;-61
2021/12/11 05:23:57;;;;;;;27.75;18.25;;;-0.80;99.90;;;;;;5097580;27;20966;-61
2021/12/11 05:26:23;;;;;;;28.42;20.00;;;-0.80;99.90;;;;;;5102243;27;20036;-61
2021/12/11 05:28:50;;;;;;;32.22;19.65;;;-0.80;99.90;;;;;;5098037;28;20044;-61
2021/12/11 05:31:15;;;;;;;29.83;19.60;;;-0.90;99.90;;;;;;5098033;28;20096;-61
2021/12/11 05:33:42;;;;;;;29.85;21.00;;;-0.80;99.90;;;;;;5131676;27;20043;-61
2021/12/11 05:36:10;;;;;;;29.05;19.67;;;-0.70;99.90;;;;;;5100041;27;20051;-61
2021/12/11 05:38:39;;;;;;;27.85;18.20;;;-0.80;99.90;;;;;;5100390;27;20126;-61
2021/12/11 05:41:07;;;;;;;32.95;21.08;;;-0.80;99.90;;;;;;5098067;27;20054;-61
2021/12/11 05:43:32;;;;;;;28.42;19.30;;;-0.70;99.90;;;;;;5103185;28;20047;-61
2021/12/11 05:45:59;;;;;;;29.95;21.55;;;-0.80;99.90;;;;;;5114003;27;20105;-61
2021/12/11 05:48:25;;;;;;;28.40;20.23;;;-0.70;99.90;;;;;;5098749;27;20047;-61
2021/12/11 05:50:54;;;;;;;24.67;18.27;;;-0.70;99.90;;;;;;5129733;27;20039;-61
2021/12/11 05:53:21;;;;;;;28.55;19.38;;;-0.60;99.90;;;;;;5097167;27;20051;-61
2021/12/11 05:55:49;;;;;;;31.67;20.42;;;-0.70;99.90;;;;;;5098839;28;20046;-61
2021/12/11 05:58:25;;;;;;;35.85;21.08;;;-0.60;99.90;;;;;;5099552;27;20111;-61
2021/12/11 06:00:52;;;;;;;32.75;22.33;;;-0.80;99.90;;;;;;5100537;28;20508;-61
2021/12/11 06:03:18;;;;;;;43.10;23.33;;;-0.80;99.90;;;;;;5098181;27;20054;-61
2021/12/11 06:05:45;;;;;;;30.48;20.35;;;-0.80;99.90;;;;;;5131483;27;20160;-61
2021/12/11 06:08:12;;;;;;;27.90;19.73;;;-0.80;99.90;;;;;;5100251;28;20044;-61
2021/12/11 06:10:40;;;;;;;28.02;18.65;;;-0.60;99.90;;;;;;5114426;27;20039;-61
2021/12/11 06:13:07;;;;;;;26.85;19.05;;;-0.80;99.90;;;;;;5095687;28;20092;-61
2021/12/11 06:15:33;;;;;;;29.90;18.65;;;-0.80;99.90;;;;;;5098205;28;20095;-61
2021/12/11 06:17:59;;;;;;;25.58;16.38;;;-0.80;99.90;;;;;;5097764;28;20043;-61
2021/12/11 06:20:28;;;;;;;25.08;17.83;;;-0.50;99.90;;;;;;5102809;28;20507;-61
2021/12/11 06:22:54;;;;;;;27.63;19.60;;;-0.70;99.90;;;;;;5097372;28;20040;-61
2021/12/11 06:25:28;;;;;;;31.10;19.13;;;-0.80;99.90;;;;;;5099190;28;20048;-61
2021/12/11 06:27:54;;;;;;;25.90;18.20;;;-0.80;99.90;;;;;;5094637;28;20032;-61
2021/12/11 06:30:21;;;;;;;23.85;16.75;;;-0.80;99.90;;;;;;5094695;28;20060;-61
2021/12/11 06:32:48;;;;;;;25.30;18.17;;;-0.90;99.90;;;;;;5096674;28;20474;-61
2021/12/11 06:35:38;;;;;;;25.98;18.08;;;-0.90;99.90;;;;;;5083290;28;20044;-61
2021/12/11 06:38:06;;;;;;;27.70;19.27;;;-0.90;99.90;;;;;;5134671;27;20039;-61
2021/12/11 06:40:32;;;;;;;28.63;18.55;;;-0.90;99.90;;;;;;5097377;28;20032;-61
2021/12/11 06:42:58;;;;;;;25.70;18.48;;;-0.90;99.90;;;;;;5097986;28;20443;-61
2021/12/11 06:45:25;;;;;;;25.83;18.05;;;-0.90;99.90;;;;;;5098989;28;20042;-61
2021/12/11 06:47:51;;;;;;;27.48;18.35;;;-0.90;99.90;;;;;;5097303;28;20044;-61
2021/12/11 06:50:18;;;;;;;26.65;20.08;;;-0.80;99.90;;;;;;5097204;28;20036;-61
2021/12/11 06:52:46;;;;;;;33.53;20.60;;;-0.80;99.90;;;;;;5098106;28;20051;-61
2021/12/11 06:55:13;;;;;;;29.48;20.15;;;-0.90;99.90;;;;;;5096989;27;20555;-61
2021/12/11 06:57:39;;;;;;;27.98;18.08;;;-0.90;99.90;;;;;;5099364;28;20028;-61
2021/12/11 07:00:07;;;;;;;26.63;19.10;;;-0.90;99.90;;;;;;5097670;28;20188;-61
2021/12/11 07:02:33;;;;;;;26.15;18.20;;;-0.90;99.90;;;;;;5101899;27;20051;-61
2021/12/11 07:04:59;;;;;;;28.55;19.60;;;-0.80;99.90;;;;;;5130384;27;20039;-61
2021/12/11 07:07:32;;;;;;;29.05;18.83;;;-0.90;99.90;;;;;;5099108;28;20133;-61
2021/12/11 07:09:58;;;;;;;26.35;19.23;;;-0.90;99.90;;;;;;5130066;27;20047;-61
2021/12/11 07:12:24;;;;;;;29.80;20.15;;;-0.90;99.90;;;;;;5098652;28;20465;-61
2021/12/11 07:14:51;;;;;;;27.73;19.67;;;-0.90;99.90;;;;;;5097555;28;20067;-61
2021/12/11 07:17:17;;;;;;;24.45;18.42;;;-0.50;99.90;;;;;;5101470;27;20136;-61
2021/12/11 07:19:43;;;;;;;20.10;16.30;;;-0.90;99.90;;;;;;5102524;27;20063;-61
2021/12/11 07:22:10;;;;;;;25.38;17.27;;;-0.90;99.90;;;;;;5099595;28;20772;-61
2021/12/11 07:24:41;;;;;;;27.77;18.80;;;-0.90;99.90;;;;;;5099782;27;20073;-61
2021/12/11 07:27:08;;;;;;;24.25;17.42;;;-0.90;99.90;;;;;;5103813;27;20070;-61
2021/12/11 07:29:36;;;;;;;28.88;20.02;;;-0.90;99.90;;;;;;5100079;28;20554;-61
2021/12/11 07:32:03;;;;;;;33.95;20.75;;;-0.80;99.90;;;;;;5098698;28;20070;-61
2021/12/11 07:34:28;;;;;;;34.55;19.83;;;-1.10;99.90;;;;;;5131118;27;20735;-61
2021/12/11 07:36:55;;;;;;;23.88;18.17;;;-1.00;99.90;;;;;;5101087;28;20040;-61
2021/12/11 07:39:22;;;;;;;21.52;15.57;;;-1.10;99.90;;;;;;5100873;27;20401;-61
2021/12/11 07:41:53;;;;;;;22.35;17.33;;;-1.10;99.90;;;;;;5100267;28;20112;-61
2021/12/11 07:44:19;;;;;;;23.35;16.85;;;-1.10;99.90;;;;;;5100636;27;20063;-61
2021/12/11 07:46:46;;;;;;;23.13;16.38;;;-1.10;99.90;;;;;;5098329;28;20032;-61
2021/12/11 07:49:15;;;;;;;25.67;18.02;;;-1.00;99.90;;;;;;5103179;27;20047;-61
2021/12/11 07:51:41;;;;;;;24.10;16.80;;;-0.90;99.90;;;;;;5098510;28;20032;-61
2021/12/11 07:54:08;;;;;;;23.92;18.42;;;-1.00;99.90;;;;;;5100693;27;20043;-61
2021/12/11 07:56:35;;;;;;;23.33;16.98;;;-1.00;99.90;;;;;;5095566;28;20051;-61
2021/12/11 07:59:03;;;;;;;22.27;15.80;;;-1.10;99.90;;;;;;5132437;27;20405;-61
2021/12/11 08:01:31;;;;;;;21.73;15.80;;;-1.00;99.90;;;;;;5104435;27;20048;-61
2021/12/11 08:03:59;;;;;;;24.15;15.88;;;-0.90;99.90;;;;;;5097052;28;20055;-61
2021/12/11 08:06:26;;;;;;;23.58;15.38;;;-1.00;99.90;;;;;;5099475;28;20520;-61
2021/12/11 08:08:52;;;;;;;27.25;16.17;;;-1.00;99.90;;;;;;5099098;28;20425;-61
2021/12/11 08:11:18;;;;;;;21.88;16.38;;;-1.10;99.90;;;;;;5130908;27;20125;-61
2021/12/11 08:13:46;;;;;;;25.08;16.10;;;-1.10;99.90;;;;;;5128162;27;20040;-61
2021/12/11 08:16:18;;;;;;;23.55;15.85;;;-1.00;99.90;;;;;;5097069;28;20052;-61
2021/12/11 08:18:44;;;;;;;27.20;17.30;;;-0.90;99.90;;;;;;5098346;28;20451;-61
2021/12/11 08:21:10;;;;;;;29.42;18.85;;;-1.00;99.90;;;;;;5099810;28;20178;-61
2021/12/11 08:23:43;;;;;;;26.92;18.05;;;-0.90;99.90;;;;;;5096339;27;20066;-61
2021/12/11 08:26:09;;;;;;;31.95;20.25;;;-0.90;99.90;;;;;;5133558;27;20422;-61
2021/12/11 08:28:35;;;;;;;25.75;19.17;;;-0.90;99.90;;;;;;5097858;28;20031;-61
2021/12/11 08:31:01;;;;;;;33.78;20.08;;;-0.90;99.90;;;;;;5097892;28;21592;-61
2021/12/11 08:33:28;;;;;;;30.10;20.35;;;-0.80;99.90;;;;;;5094194;28;20483;-61
2021/12/11 08:35:55;;;;;;;25.92;20.05;;;-0.80;99.90;;;;;;5097987;28;20059;-61
2021/12/11 08:38:20;;;;;;;30.80;22.02;;;-0.50;99.90;;;;;;5099719;28;20061;-61
2021/12/11 08:40:57;;;;;;;31.15;20.80;;;-0.70;99.90;;;;;;5100445;27;20032;-61
2021/12/11 08:43:25;;;;;;;35.25;23.60;;;-0.70;99.90;;;;;;5128854;27;20044;-61
2021/12/11 08:46:10;;;;;;;34.72;21.55;;;-0.60;99.90;;;;;;5095080;28;20516;-61
2021/12/11 08:48:43;;;;;;;31.52;21.20;;;-0.60;99.90;;;;;;5095355;28;20071;-61
2021/12/11 08:51:39;;;;;;;40.65;21.67;;;-0.60;99.90;;;;;;5095623;28;20040;-61
2021/12/11 08:54:05;;;;;;;;;;;-0.60;99.90;;;;;;5093692;27;21680;-61
2021/12/11 08:56:31;;;;;;;30.45;20.23;;;-0.50;99.90;;;;;;5093651;28;19922;-61
2021/12/11 08:58:58;;;;;;;32.85;21.33;;;-0.50;99.90;;;;;;5096523;28;20366;-61
2021/12/11 09:01:59;;;;;;;29.73;20.95;;;-0.40;99.90;;;;;;5095937;27;20114;-61
2021/12/11 09:04:27;;;;;;;31.27;22.27;;;-0.40;99.90;;;;;;5082875;27;20056;-61
2021/12/11 09:07:00;;;;;;;29.17;20.95;;;-0.10;99.90;;;;;;5097431;27;20028;-61
2021/12/11 09:09:38;;;;;;;35.08;23.85;;;-0.40;99.90;;;;;;5099562;27;20051;-61
2021/12/11 09:12:12;;;;;;;32.80;22.38;;;-0.30;99.90;;;;;;5096407;27;20036;-61
2021/12/11 09:15:12;;;;;;;36.20;22.08;;;-0.30;99.90;;;;;;5101651;27;20038;-61
2021/12/11 09:17:45;;;;;;;35.83;22.92;;;-0.20;99.90;;;;;;5096901;27;20487;-61
2021/12/11 09:20:27;;;;;;;30.75;23.17;;;-0.10;99.90;;;;;;5095389;28;20478;-61
2021/12/11 09:23:16;;;;;;;33.40;24.08;;;-0.10;99.90;;;;;;5098921;27;20044;-61
2021/12/11 09:25:46;;;;;;;35.85;24.90;;;-0.10;99.90;;;;;;5094656;28;20926;-61
2021/12/11 09:28:21;;;;;;;34.75;24.52;;;-0.10;99.90;;;;;;5128820;27;20039;-61
2021/12/11 09:31:18;;;;;;;32.55;23.02;;;-0.10;99.90;;;;;;5099361;28;20054;-62
2021/12/11 09:33:55;;;;;;;35.65;24.02;;;0.00;99.90;;;;;;5082587;28;20051;-62
2021/12/11 09:36:25;;;;;;;37.08;25.55;;;0.10;99.90;;;;;;5096127;28;20044;-62
2021/12/11 09:38:58;;;;;;;40.58;26.23;;;0.10;99.90;;;;;;5099121;27;20039;-62
2021/12/11 09:41:27;;;;;;;42.10;26.10;;;0.20;99.90;;;;;;5094078;28;20069;-62
2021/12/11 09:44:11;;;;;;;36.25;24.67;;;0.20;99.90;;;;;;5096576;28;20121;-62
2021/12/11 09:47:11;;;;;;;35.80;24.50;;;0.20;99.90;;;;;;5097093;28;20601;-62
2021/12/11 09:49:42;;;;;;;39.42;23.70;;;0.30;99.90;;;;;;5088832;27;20103;-63
2021/12/11 09:52:17;;;;;;;38.83;27.10;;;0.40;99.90;;;;;;5126818;27;20521;-62
2021/12/11 09:54:48;;;;;;;38.15;27.00;;;0.50;99.90;;;;;;5097178;27;20363;-63
2021/12/11 09:57:19;;;;;;;35.22;25.77;;;0.60;99.90;;;;;;5095856;27;20048;-62
2021/12/11 09:59:47;;;;;;;37.30;25.98;;;0.70;99.90;;;;;;5100869;27;20046;-62
2021/12/11 10:02:18;;;;;;;36.25;26.92;;;0.80;99.90;;;;;;5098422;27;20054;-62
2021/12/11 10:04:58;;;;;;;41.95;26.85;;;0.80;99.90;;;;;;5083313;28;20054;-62
2021/12/11 10:07:35;;;;;;;33.45;26.58;;;0.80;99.90;;;;;;5100560;27;20067;-62
2021/12/11 10:10:23;;;;;;;32.25;25.33;;;1.00;99.90;;;;;;5132505;27;20067;-62
2021/12/11 10:12:56;;;;;;;32.63;26.08;;;1.10;99.90;;;;;;5130792;27;20596;-62
2021/12/11 10:15:29;;;;;;;30.27;23.48;;;1.30;99.90;;;;;;5102112;28;20043;-62
2021/12/11 10:17:59;;;;;;;32.88;25.15;;;1.60;99.90;;;;;;5100814;27;20091;-62
2021/12/11 10:20:48;;;;;;;29.42;23.17;;;1.80;99.90;;;;;;5097532;28;20047;-62
2021/12/11 10:23:19;;;;;;;27.48;22.55;;;2.00;99.90;;;;;;5097876;27;20055;-62
2021/12/11 10:25:47;;;;;;;26.23;21.67;;;2.10;99.90;;;;;;5085807;28;20051;-62
2021/12/11 10:28:18;;;;;;;25.70;22.38;;;2.20;99.90;;;;;;5134378;27;20051;-62
2021/12/11 10:30:52;;;;;;;26.20;21.73;;;2.30;99.90;;;;;;5100901;27;20036;-62
2021/12/11 10:33:20;;;;;;;25.27;22.55;;;2.30;99.90;;;;;;5100564;27;20036;-62
2021/12/11 10:35:49;;;;;;;26.83;22.25;;;2.40;99.90;;;;;;5135273;27;20044;-62
2021/12/11 10:38:16;;;;;;;27.33;21.83;;;2.50;99.90;;;;;;5133257;27;20044;-62
2021/12/11 10:40:52;;;;;;;26.40;21.98;;;2.60;99.90;;;;;;5100561;27;20093;-62
2021/12/11 10:43:20;;;;;;;;;;;2.80;99.90;;;;;;5102049;28;20047;-62
2021/12/11 10:45:47;;;;;;;30.02;22.02;;;3.10;99.90;;;;;;5100806;28;19931;-63
2021/12/11 10:48:17;;;;;;;23.02;19.75;;;3.20;99.90;;;;;;5102562;27;20039;-63
2021/12/11 10:50:52;;;;;;;21.98;19.67;;;3.50;99.90;;;;;;5105729;27;20050;-63
2021/12/11 10:53:21;;;;;;;23.55;19.20;;;3.60;99.90;;;;;;5103424;27;20090;-63
2021/12/11 10:55:48;;;;;;;22.30;18.63;;;3.60;99.90;;;;;;5101574;27;20150;-62
2021/12/11 10:58:18;;;;;;;24.13;19.00;;;3.80;99.90;;;;;;5135125;27;20044;-62
2021/12/11 11:00:46;;;;;;;24.15;18.40;;;3.80;99.90;;;;;;5101965;27;20062;-63
2021/12/11 11:03:15;;;;;;;25.38;19.67;;;3.90;99.90;;;;;;5105696;27;21316;-63
2021/12/11 11:05:41;;;;;;;20.35;18.15;;;4.10;99.90;;;;;;5135199;27;20044;-63
2021/12/11 11:08:08;;;;;;;21.58;19.08;;;4.20;99.90;;;;;;5105296;27;20047;-63
2021/12/11 11:10:40;;;;;;;21.90;17.08;;;4.40;99.90;;;;;;5105346;27;20040;-63
2021/12/11 11:13:14;;;;;;;20.30;18.05;;;4.60;99.90;;;;;;5133796;27;20052;-63
2021/12/11 11:15:42;;;;;;;21.73;18.15;;;4.80;99.90;;;;;;5103452;27;20539;-63
2021/12/11 11:18:10;;;;;;;22.02;16.73;;;5.10;99.90;;;;;;5132575;27;20431;-63
2021/12/11 11:20:43;;;;;;;19.60;17.40;;;5.30;99.90;;;;;;5100556;27;20066;-63
2021/12/11 11:23:09;;;;;;;23.27;17.23;;;5.60;99.90;;;;;;5100446;27;20044;-63
2021/12/11 11:25:41;;;;;;;18.33;16.52;;;5.80;99.90;;;;;;5098820;27;20710;-63
2021/12/11 11:28:11;;;;;;;22.50;17.17;;;5.90;99.90;;;;;;5132612;27;20044;-63
2021/12/11 11:30:43;;;;;;;19.45;17.25;;;6.10;99.90;;;;;;5104626;27;20044;-63
2021/12/11 11:33:10;;;;;;;20.38;17.80;;;6.20;99.90;;;;;;5102491;27;20390;-63
2021/12/11 11:35:42;;;;;;;19.92;17.70;;;6.30;99.90;;;;;;5100952;27;20895;-63
2021/12/11 11:38:13;;;;;;;19.40;17.00;;;6.30;99.90;;;;;;5102012;27;20044;-63
2021/12/11 11:40:41;;;;;;;20.63;17.00;;;6.20;99.90;;;;;;5099072;28;21956;-63
2021/12/11 11:43:08;;;;;;;19.27;17.08;;;6.20;99.90;;;;;;5102972;27;20066;-63
2021/12/11 11:45:36;;;;;;;19.30;16.30;;;6.30;99.90;;;;;;5096396;27;20093;-63
2021/12/11 11:48:03;;;;;;;20.15;17.38;;;6.20;99.90;;;;;;5102883;27;21379;-63
2021/12/11 11:50:35;;;;;;;23.85;18.00;;;6.20;99.90;;;;;;5098260;27;20050;-63
2021/12/11 11:53:03;;;;;;;19.08;16.25;;;6.30;99.90;;;;;;5099310;27;20072;-63
2021/12/11 11:55:38;;;;;;;20.08;17.25;;;6.30;99.90;;;;;;5101544;27;20520;-63
2021/12/11 11:58:04;;;;;;;23.65;17.73;;;6.40;99.90;;;;;;5102843;27;20458;-63
2021/12/11 12:00:53;;;;;;;19.65;17.42;;;6.30;99.90;;;;;;5101839;27;20453;-63
2021/12/11 12:03:22;;;;;;;20.13;18.13;;;6.20;99.90;;;;;;5131786;27;20052;-63
2021/12/11 12:05:51;;;;;;;22.77;17.30;;;6.20;99.90;;;;;;5104054;27;20028;-63
2021/12/11 12:08:18;;;;;;;22.65;18.25;;;6.20;99.90;;;;;;5102820;27;20058;-63
2021/12/11 12:10:46;;;;;;;23.77;19.30;;;6.10;99.90;;;;;;5090821;28;20040;-63
2021/12/11 12:13:14;;;;;;;24.05;18.70;;;6.00;99.90;;;;;;5100982;27;20052;-63
2021/12/11 12:15:51;;;;;;;27.48;19.50;;;5.90;99.90;;;;;;5096325;27;20039;-63
2021/12/11 12:18:19;;;;;;;25.35;20.33;;;6.00;99.90;;;;;;5100834;27;20502;-63
2021/12/11 12:20:46;;;;;;;27.35;19.55;;;5.80;99.90;;;;;;5118989;27;20032;-63
2021/12/11 12:23:13;;;;;;;26.63;18.70;;;5.80;99.90;;;;;;5100085;28;21030;-63
2021/12/11 12:25:41;;;;;;;24.33;18.40;;;5.70;99.90;;;;;;5104107;27;20066;-63
2021/12/11 12:28:07;;;;;;;26.30;19.42;;;5.60;99.90;;;;;;5105421;27;20129;-62
2021/12/11 12:30:52;;;;;;;27.95;20.65;;;5.70;99.90;;;;;;5090938;27;20131;-62
2021/12/11 12:33:18;;;;;;;24.95;19.10;;;5.60;99.90;;;;;;5104023;27;20044;-62
2021/12/11 12:35:47;;;;;;;30.00;18.13;;;5.50;99.90;;;;;;5101284;28;20555;-62
2021/12/11 12:38:17;;;;;;;27.48;18.63;;;5.50;99.90;;;;;;5100459;28;20044;-62
2021/12/11 12:41:05;;;;;;;25.55;18.02;;;5.50;99.90;;;;;;5105313;27;20031;-62
2021/12/11 12:46:23;;;;;;;25.35;18.08;;;5.60;99.90;;;;;;5131691;27;20073;-62
2021/12/11 12:48:49;;;;;;;29.30;19.52;;;5.60;99.90;;;;;;5132589;27;20067;-62
2021/12/11 12:51:15;;;;;;;29.92;19.95;;;5.50;99.90;;;;;;5098212;27;20055;-62
2021/12/11 12:53:44;;;;;;;30.13;20.02;;;5.50;99.90;;;;;;5096108;28;20720;-62
2021/12/11 12:56:15;;;;;;;25.63;16.13;;;5.60;99.90;;;;;;5100395;28;20046;-61
2021/12/11 12:58:53;;;;;;;27.73;18.55;;;5.60;99.90;;;;;;5102033;27;20088;-63
2021/12/11 13:01:37;;;;;;;28.73;19.88;;;5.70;99.90;;;;;;5103726;28;20544;-63
2021/12/11 13:04:05;;;;;;;28.05;19.45;;;5.60;99.90;;;;;;5099548;28;20043;-63
2021/12/11 13:06:37;;;;;;;28.83;19.38;;;5.50;99.90;;;;;;5101254;27;20035;-63